createdAt,value
2022-12-23T00:01:02.368Z,75.89
2022-12-23T00:03:30.994Z,77.05
2022-12-23T00:05:58.484Z,76.31
2022-12-23T00:08:27.084Z,76.20
2022-12-23T00:10:56.612Z,75.92
2022-12-23T00:13:42.065Z,76.12
2022-12-23T00:16:12.926Z,76.14
2022-12-23T00:18:41.068Z,75.73
2022-12-23T00:21:12.644Z,76.00
2022-12-23T00:23:43.151Z,75.09
2022-12-23T00:26:22.031Z,74.79
2022-12-23T00:28:50.052Z,75.10
2022-12-23T00:31:19.019Z,76.40
2022-12-23T00:33:51.018Z,76.10
2022-12-23T00:36:30.074Z,76.19
2022-12-23T00:39:16.829Z,76.94
2022-12-23T00:42:03.349Z,77.43
2022-12-23T00:44:30.465Z,76.38
2022-12-23T00:46:57.768Z,76.30
2022-12-23T00:49:43.272Z,76.21
2022-12-23T00:52:13.090Z,76.07
2022-12-23T00:54:40.389Z,75.95
2022-12-23T00:57:07.391Z,75.74
2022-12-23T00:59:34.528Z,75.54
2022-12-23T01:02:20.687Z,75.35
2022-12-23T01:05:06.377Z,75.34
2022-12-23T01:07:33.582Z,75.00
2022-12-23T01:10:00.633Z,75.17
2022-12-23T01:12:27.962Z,75.19
2022-12-23T01:14:55.035Z,74.90
2022-12-23T01:17:22.144Z,74.85
2022-12-23T01:19:49.271Z,74.91
2022-12-23T01:22:16.349Z,74.91
2022-12-23T01:24:43.379Z,75.02
2022-12-23T01:27:10.372Z,74.85
2022-12-23T01:29:37.580Z,75.23
2022-12-23T01:32:04.809Z,75.16
2022-12-23T01:34:36.687Z,75.15
2022-12-23T01:37:04.368Z,75.22
2022-12-23T01:39:31.332Z,74.99
2022-12-23T01:42:16.889Z,74.49
2022-12-23T01:44:51.297Z,74.91
2022-12-23T01:47:49.282Z,74.40
2022-12-23T01:50:35.656Z,74.69
2022-12-23T01:53:08.646Z,74.74
2022-12-23T01:55:50.793Z,75.07
2022-12-23T01:58:26.140Z,74.51
2022-12-23T02:01:14.743Z,73.98
2022-12-23T02:03:42.651Z,73.70
2022-12-23T02:06:42.674Z,73.98
2022-12-23T02:09:19.295Z,74.35
2022-12-23T02:11:52.172Z,74.66
2022-12-23T02:15:02.846Z,74.71
2022-12-23T02:17:52.134Z,74.56
2022-12-23T02:20:22.077Z,74.72
2022-12-23T02:22:54.692Z,74.84
2022-12-23T02:25:30.419Z,74.69
2022-12-23T02:28:21.438Z,74.65
2022-12-23T02:31:10.784Z,74.69
2022-12-23T02:34:00.970Z,74.80
2022-12-23T02:36:37.216Z,74.77
2022-12-23T02:39:15.190Z,74.71
2022-12-23T02:41:57.815Z,75.01
2022-12-23T02:44:30.152Z,74.15
2022-12-23T02:47:02.057Z,74.54
2022-12-23T02:49:35.557Z,74.68
2022-12-23T02:52:08.170Z,74.91
2022-12-23T02:54:42.060Z,74.51
2022-12-23T02:57:13.165Z,74.25
2022-12-23T02:59:45.973Z,74.57
2022-12-23T03:02:13.406Z,75.30
2022-12-23T03:04:42.425Z,75.41
2022-12-23T03:07:23.943Z,75.45
2022-12-23T03:10:35.441Z,75.71
2022-12-23T03:13:23.493Z,75.50
2022-12-23T03:16:05.518Z,75.55
2022-12-23T03:18:56.792Z,75.45
2022-12-23T03:21:45.049Z,75.76
2022-12-23T03:24:41.579Z,76.18
2022-12-23T03:27:42.991Z,76.69
2022-12-23T03:30:16.948Z,76.44
2022-12-23T03:32:58.248Z,76.03
2022-12-23T03:35:32.483Z,75.71
2022-12-23T03:38:02.969Z,75.57
2022-12-23T03:40:41.510Z,75.62
2022-12-23T03:43:15.072Z,75.57
2022-12-23T03:45:52.829Z,75.79
2022-12-23T03:48:40.309Z,75.80
2022-12-23T03:51:17.032Z,74.91
2022-12-23T03:53:52.089Z,74.60
2022-12-23T03:56:31.177Z,74.82
2022-12-23T03:59:01.474Z,75.12
2022-12-23T04:02:05.749Z,75.38
2022-12-23T04:05:01.308Z,75.98
2022-12-23T04:07:34.650Z,75.82
2022-12-23T04:10:01.787Z,75.76
2022-12-23T04:12:30.599Z,76.23
2022-12-23T04:14:58.105Z,76.39
2022-12-23T04:17:25.212Z,76.27
2022-12-23T04:19:53.374Z,76.43
2022-12-23T04:22:20.626Z,76.16
2022-12-23T04:24:47.776Z,76.47
2022-12-23T04:27:15.733Z,76.09
2022-12-23T04:29:43.990Z,75.99
2022-12-23T04:32:11.424Z,76.66
2022-12-23T04:34:38.461Z,76.02
2022-12-23T04:37:05.507Z,76.18
2022-12-23T04:39:32.597Z,76.11
2022-12-23T04:41:59.598Z,75.95
2022-12-23T04:44:26.595Z,75.18
2022-12-23T04:46:53.899Z,75.06
2022-12-23T04:49:20.930Z,74.71
2022-12-23T04:51:47.954Z,74.99
2022-12-23T04:54:15.075Z,75.11
2022-12-23T04:56:42.073Z,75.27
2022-12-23T04:59:10.533Z,75.39
2022-12-23T05:01:37.752Z,75.54
2022-12-23T05:04:05.058Z,75.27
2022-12-23T05:06:32.047Z,75.63
2022-12-23T05:08:59.050Z,75.59
2022-12-23T05:11:26.138Z,76.57
2022-12-23T05:13:53.192Z,76.00
2022-12-23T05:16:20.423Z,75.44
2022-12-23T05:18:47.460Z,75.81
2022-12-23T05:21:14.506Z,76.00
2022-12-23T05:23:41.663Z,76.12
2022-12-23T05:26:08.687Z,76.57
2022-12-23T05:28:35.967Z,76.53
2022-12-23T05:31:08.408Z,77.07
2022-12-23T05:33:36.001Z,76.80
2022-12-23T05:36:03.323Z,76.67
2022-12-23T05:38:30.779Z,76.28
2022-12-23T05:40:58.205Z,76.19
2022-12-23T05:43:25.210Z,76.46
2022-12-23T05:45:52.375Z,76.43
2022-12-23T05:48:19.690Z,76.48
2022-12-23T05:50:51.026Z,76.26
2022-12-23T05:53:18.112Z,75.58
2022-12-23T05:55:45.474Z,75.21
2022-12-23T05:58:12.495Z,74.82
2022-12-23T06:00:39.566Z,74.74
2022-12-23T06:03:06.791Z,74.72
2022-12-23T06:05:34.035Z,74.47
2022-12-23T06:08:01.123Z,74.99
2022-12-23T06:10:28.215Z,75.40
2022-12-23T06:12:55.315Z,75.38
2022-12-23T06:15:22.388Z,75.74
2022-12-23T06:17:50.254Z,75.95
2022-12-23T06:20:20.652Z,75.58
2022-12-23T06:22:48.337Z,75.56
2022-12-23T06:25:15.588Z,75.56
2022-12-23T06:27:42.626Z,75.50
2022-12-23T06:30:10.716Z,75.30
2022-12-23T06:32:38.856Z,75.49
2022-12-23T06:35:07.673Z,75.54
2022-12-23T06:37:34.993Z,75.50
2022-12-23T06:40:02.391Z,75.42
2022-12-23T06:42:29.567Z,75.17
2022-12-23T06:44:56.507Z,75.41
2022-12-23T06:47:23.607Z,75.55
2022-12-23T06:49:50.586Z,76.63
2022-12-23T06:52:17.763Z,77.88
2022-12-23T06:54:44.874Z,77.57
2022-12-23T06:57:12.013Z,77.47
2022-12-23T06:59:38.985Z,77.72
2022-12-23T07:02:06.826Z,78.04
2022-12-23T07:04:34.048Z,77.57
2022-12-23T07:07:01.038Z,76.81
2022-12-23T07:09:28.193Z,76.68
2022-12-23T07:11:55.167Z,76.21
2022-12-23T07:14:22.204Z,75.73
2022-12-23T07:16:49.301Z,75.69
2022-12-23T07:19:16.445Z,75.69
2022-12-23T07:21:43.408Z,75.45
2022-12-23T07:24:10.665Z,76.60
2022-12-23T07:26:37.746Z,75.37
2022-12-23T07:29:05.385Z,74.94
2022-12-23T07:31:32.505Z,74.92
2022-12-23T07:33:59.776Z,75.09
2022-12-23T07:36:27.032Z,75.07
2022-12-23T07:38:54.101Z,74.60
2022-12-23T07:41:21.194Z,74.69
2022-12-23T07:43:48.190Z,74.48
2022-12-23T07:46:15.366Z,74.30
2022-12-23T07:48:43.443Z,74.68
2022-12-23T07:51:10.800Z,74.50
2022-12-23T07:53:37.944Z,75.27
2022-12-23T07:56:05.512Z,75.88
2022-12-23T07:58:32.647Z,76.53
2022-12-23T08:01:05.694Z,76.37
2022-12-23T08:03:32.922Z,76.79
2022-12-23T08:06:05.965Z,76.51
2022-12-23T08:08:33.706Z,75.76
2022-12-23T08:11:03.048Z,74.99
2022-12-23T08:13:32.025Z,73.93
2022-12-23T08:16:00.889Z,73.92
2022-12-23T08:18:30.809Z,74.12
2022-12-23T08:21:00.447Z,73.91
2022-12-23T08:23:28.901Z,74.55
2022-12-23T08:26:13.677Z,75.11
2022-12-23T08:28:42.517Z,75.08
2022-12-23T08:31:18.402Z,75.34
2022-12-23T08:33:48.353Z,75.19
2022-12-23T08:36:23.400Z,75.35
2022-12-23T08:38:53.065Z,75.69
2022-12-23T08:41:24.957Z,75.68
2022-12-23T08:43:52.366Z,76.10
2022-12-23T08:46:20.406Z,75.98
2022-12-23T08:48:49.795Z,76.88
2022-12-23T08:51:19.028Z,76.67
2022-12-23T08:53:46.844Z,76.81
2022-12-23T08:56:18.966Z,76.66
2022-12-23T08:58:47.824Z,76.76
2022-12-23T09:01:17.142Z,76.65
2022-12-23T09:03:45.285Z,76.55
2022-12-23T09:06:26.540Z,76.05
2022-12-23T09:08:56.363Z,75.43
2022-12-23T09:11:26.265Z,75.25
2022-12-23T09:13:53.812Z,75.16
2022-12-23T09:16:21.461Z,75.08
2022-12-23T09:18:48.567Z,75.12
2022-12-23T09:21:18.746Z,75.70
2022-12-23T09:23:45.916Z,75.20
2022-12-23T09:26:29.067Z,75.71
2022-12-23T09:28:57.444Z,74.67
2022-12-23T09:31:27.983Z,75.09
2022-12-23T09:33:59.552Z,75.32
2022-12-23T09:36:26.547Z,74.84
2022-12-23T09:38:55.733Z,74.53
2022-12-23T09:41:50.775Z,74.30
2022-12-23T09:44:37.647Z,72.97
2022-12-23T09:47:13.567Z,73.10
2022-12-23T09:49:47.625Z,70.88
2022-12-23T09:52:41.735Z,69.71
2022-12-23T09:55:12.110Z,69.03
2022-12-23T09:58:06.747Z,68.74
2022-12-23T10:00:43.014Z,69.12
2022-12-23T10:03:35.847Z,68.54
2022-12-23T10:06:11.541Z,67.67
2022-12-23T10:09:01.485Z,68.02
2022-12-23T10:11:32.615Z,67.28
2022-12-23T10:14:25.291Z,65.50
2022-12-23T10:17:12.448Z,65.35
2022-12-23T10:19:45.987Z,64.92
2022-12-23T10:22:39.507Z,64.52
2022-12-23T10:25:15.807Z,63.82
2022-12-23T10:27:44.266Z,62.54
2022-12-23T10:30:42.626Z,62.59
2022-12-23T10:33:28.527Z,61.66
2022-12-23T10:36:04.406Z,60.39
2022-12-23T10:38:58.507Z,61.31
2022-12-23T10:41:48.531Z,60.92
2022-12-23T10:44:56.648Z,60.50
2022-12-23T10:47:53.348Z,59.62
2022-12-23T10:50:33.656Z,57.17
2022-12-23T10:53:05.048Z,55.64
2022-12-23T10:55:38.669Z,56.91
2022-12-23T10:58:17.809Z,55.47
2022-12-23T11:01:14.996Z,53.59
2022-12-23T11:04:09.130Z,53.53
2022-12-23T11:06:43.800Z,52.75
2022-12-23T11:09:28.477Z,51.10
2022-12-23T11:12:02.340Z,50.92
2022-12-23T11:14:37.859Z,50.93
2022-12-23T11:17:17.942Z,49.98
2022-12-23T11:19:45.229Z,49.54
2022-12-23T11:22:23.529Z,48.44
2022-12-23T11:24:51.709Z,47.28
2022-12-23T11:27:20.028Z,47.01
2022-12-23T11:29:54.167Z,47.81
2022-12-23T11:32:25.083Z,45.88
2022-12-23T11:34:53.574Z,45.59
2022-12-23T11:37:42.591Z,44.10
2022-12-23T11:40:32.923Z,44.94
2022-12-23T11:43:03.692Z,44.42
2022-12-23T11:45:35.729Z,44.12
2022-12-23T11:48:06.228Z,43.61
2022-12-23T11:50:37.464Z,44.27
2022-12-23T11:53:11.788Z,43.00
2022-12-23T11:56:03.653Z,42.59
2022-12-23T11:58:37.108Z,40.90
2022-12-23T12:13:41.749Z,37.19
2022-12-23T12:16:14.400Z,36.76
2022-12-23T12:18:47.090Z,34.26
2022-12-23T12:21:31.558Z,33.81
2022-12-23T12:24:24.853Z,33.23
2022-12-23T12:26:54.950Z,32.14
2022-12-23T12:29:36.953Z,32.51
2022-12-23T12:32:07.795Z,31.99
2022-12-23T12:34:37.887Z,31.81
2022-12-23T12:37:27.946Z,31.79
2022-12-23T12:40:04.256Z,31.48
2022-12-23T12:42:42.292Z,30.89
2022-12-23T12:45:18.481Z,30.86
2022-12-23T12:48:11.652Z,29.49
2022-12-23T12:51:05.987Z,27.71
2022-12-23T12:53:34.019Z,26.68
2022-12-23T12:56:11.175Z,25.81
2022-12-23T12:58:39.545Z,24.06
2022-12-23T13:01:18.594Z,24.73
2022-12-23T13:04:21.639Z,26.41
2022-12-23T13:07:02.165Z,24.88
2022-12-23T13:09:48.046Z,26.29
2022-12-23T13:12:29.391Z,27.75
2022-12-23T13:15:05.716Z,28.19
2022-12-23T13:17:39.685Z,29.93
2022-12-23T13:20:27.751Z,29.13
2022-12-23T13:23:27.135Z,28.88
2022-12-23T13:26:01.350Z,28.77
2022-12-23T13:29:16.045Z,29.67
2022-12-23T13:31:55.293Z,30.27
2022-12-23T13:34:46.686Z,30.51
2022-12-23T13:37:30.572Z,31.26
2022-12-23T13:40:23.648Z,32.71
2022-12-23T13:42:55.804Z,33.54
2022-12-23T13:45:31.936Z,34.04
2022-12-23T13:48:19.968Z,34.85
2022-12-23T13:50:55.619Z,36.72
2022-12-23T13:53:48.526Z,37.47
2022-12-23T13:56:30.122Z,38.71
2022-12-23T13:58:58.705Z,39.82
2022-12-23T14:01:43.868Z,40.26
2022-12-23T14:04:33.569Z,41.41
2022-12-23T14:07:23.331Z,41.41
2022-12-23T14:09:57.248Z,41.74
2022-12-23T14:12:31.451Z,42.33
2022-12-23T14:15:39.513Z,42.90
2022-12-23T14:18:35.085Z,44.16
2022-12-23T14:21:33.390Z,45.08
2022-12-23T14:24:28.987Z,46.31
2022-12-23T14:27:05.028Z,47.41
2022-12-23T14:30:10.785Z,47.04
2022-12-23T14:33:00.558Z,46.68
2022-12-23T14:35:30.365Z,47.61
2022-12-23T14:38:23.172Z,47.53
2022-12-23T14:40:51.902Z,47.97
2022-12-23T14:43:22.605Z,48.19
2022-12-23T14:45:50.869Z,49.84
2022-12-23T14:48:36.163Z,50.47
2022-12-23T14:51:06.967Z,50.73
2022-12-23T14:53:35.373Z,51.65
2022-12-23T14:56:08.509Z,52.60
2022-12-23T14:58:54.220Z,51.78
2022-12-23T15:01:51.986Z,52.26
2022-12-23T15:04:22.409Z,52.39
2022-12-23T15:07:02.082Z,51.92
2022-12-23T15:09:40.223Z,52.60
2022-12-23T15:12:16.218Z,53.17
2022-12-23T15:15:11.990Z,53.73
2022-12-23T15:17:40.047Z,53.64
2022-12-23T15:20:10.099Z,53.55
2022-12-23T15:22:38.108Z,53.44
2022-12-23T15:25:18.576Z,54.66
2022-12-23T15:27:45.768Z,54.64
2022-12-23T15:30:14.489Z,55.43
2022-12-23T15:32:48.508Z,55.74
2022-12-23T15:35:25.394Z,55.84
2022-12-23T15:37:52.809Z,56.17
2022-12-23T15:40:37.149Z,56.32
2022-12-23T15:43:24.121Z,56.54
2022-12-23T15:45:52.348Z,57.00
2022-12-23T15:48:33.135Z,57.59
2022-12-23T15:51:06.518Z,57.50
2022-12-23T15:53:39.165Z,58.14
2022-12-23T15:56:12.108Z,58.08
2022-12-23T15:58:42.585Z,58.59
2022-12-23T16:01:15.688Z,58.57
2022-12-23T16:03:53.361Z,59.14
2022-12-23T16:06:25.594Z,58.84
2022-12-23T16:09:06.888Z,59.89
2022-12-23T16:11:53.501Z,59.71
2022-12-23T16:14:31.515Z,59.45
2022-12-23T16:17:00.508Z,59.92
2022-12-23T16:19:39.083Z,60.10
2022-12-23T16:22:20.383Z,60.20
2022-12-23T16:24:51.820Z,60.19
2022-12-23T16:27:32.270Z,60.53
2022-12-23T16:30:02.677Z,60.83
2022-12-23T16:32:29.801Z,60.84
2022-12-23T16:34:56.877Z,60.91
2022-12-23T16:37:23.935Z,60.97
2022-12-23T16:39:50.986Z,60.62
2022-12-23T16:42:19.076Z,61.53
2022-12-23T16:44:46.127Z,61.74
2022-12-23T16:47:17.691Z,60.57
2022-12-23T16:49:45.210Z,60.10
2022-12-23T16:52:14.513Z,61.85
2022-12-23T16:54:42.775Z,61.82
2022-12-23T16:57:10.636Z,62.56
2022-12-23T16:59:41.278Z,62.90
2022-12-23T17:02:21.423Z,62.18
2022-12-23T17:04:48.606Z,62.77
2022-12-23T17:07:15.629Z,62.83
2022-12-23T17:09:42.625Z,62.99
2022-12-23T17:12:10.226Z,63.09
2022-12-23T17:14:37.267Z,63.25
2022-12-23T17:17:13.582Z,63.34
2022-12-23T17:19:40.695Z,63.47
2022-12-23T17:22:13.065Z,63.58
2022-12-23T17:24:40.245Z,63.59
2022-12-23T17:27:15.946Z,63.93
2022-12-23T17:29:43.370Z,63.84
2022-12-23T17:32:15.299Z,64.03
2022-12-23T17:34:42.531Z,63.78
2022-12-23T17:37:20.254Z,63.65
2022-12-23T17:39:48.405Z,63.85
2022-12-23T17:42:24.898Z,64.02
2022-12-23T17:44:52.840Z,63.63
2022-12-23T17:47:22.653Z,63.83
2022-12-23T17:49:49.944Z,63.74
2022-12-23T17:52:20.105Z,63.69
2022-12-23T17:54:49.147Z,64.04
2022-12-23T17:57:20.594Z,64.19
2022-12-23T17:59:49.286Z,64.17
2022-12-23T18:02:38.370Z,64.14
2022-12-23T18:05:27.875Z,64.19
2022-12-23T18:08:01.129Z,63.97
2022-12-23T18:10:32.812Z,64.04
2022-12-23T18:13:02.162Z,64.13
2022-12-23T18:15:39.992Z,64.17
2022-12-23T18:18:24.113Z,63.96
2022-12-23T18:20:57.459Z,63.68
2022-12-23T18:23:29.956Z,64.16
2022-12-23T18:25:57.838Z,64.20
2022-12-23T18:28:25.464Z,64.32
2022-12-23T18:30:55.219Z,64.28
2022-12-23T18:33:24.335Z,64.40
2022-12-23T18:35:51.418Z,64.62
2022-12-23T18:38:18.822Z,64.84
2022-12-23T18:40:46.252Z,64.87
2022-12-23T18:43:22.074Z,64.65
2022-12-23T18:45:53.273Z,64.96
2022-12-23T18:48:21.646Z,64.92
2022-12-23T18:50:49.178Z,65.00
2022-12-23T18:53:23.749Z,65.02
2022-12-23T18:55:52.091Z,65.13
2022-12-23T18:58:19.674Z,65.55
2022-12-23T19:00:47.923Z,66.21
2022-12-23T19:03:23.913Z,66.20
2022-12-23T19:05:52.505Z,66.16
2022-12-23T19:08:26.247Z,66.09
2022-12-23T19:10:54.329Z,66.35
2022-12-23T19:13:21.403Z,66.07
2022-12-23T19:15:48.524Z,66.34
2022-12-23T19:18:18.168Z,66.73
2022-12-23T19:20:46.484Z,66.26
2022-12-23T19:23:14.066Z,65.84
2022-12-23T19:25:46.193Z,66.51
2022-12-23T19:28:19.517Z,66.24
2022-12-23T19:30:46.644Z,66.49
2022-12-23T19:33:13.687Z,66.48
2022-12-23T19:35:44.541Z,66.51
2022-12-23T19:38:12.696Z,67.00
2022-12-23T19:40:40.248Z,66.94
2022-12-23T19:43:07.775Z,67.15
2022-12-23T19:45:34.943Z,66.87
2022-12-23T19:48:02.021Z,67.28
2022-12-23T19:50:29.116Z,67.05
2022-12-23T19:52:56.683Z,67.12
2022-12-23T19:55:24.020Z,66.96
2022-12-23T19:57:51.978Z,67.24
2022-12-23T20:00:19.098Z,67.19
2022-12-23T20:02:46.235Z,67.40
2022-12-23T20:05:13.389Z,67.28
2022-12-23T20:07:40.527Z,66.74
2022-12-23T20:10:08.206Z,67.03
2022-12-23T20:12:35.247Z,67.36
2022-12-23T20:15:02.403Z,67.28
2022-12-23T20:17:29.406Z,67.64
2022-12-23T20:19:56.412Z,67.99
2022-12-23T20:22:23.530Z,67.97
2022-12-23T20:24:51.186Z,68.40
2022-12-23T20:27:22.677Z,68.26
2022-12-23T20:29:53.328Z,68.59
2022-12-23T20:32:21.246Z,69.24
2022-12-23T20:34:50.193Z,68.97
2022-12-23T20:37:17.850Z,68.65
2022-12-23T20:39:44.839Z,68.54
2022-12-23T20:42:11.892Z,69.01
2022-12-23T20:44:39.002Z,68.47
2022-12-23T20:47:06.630Z,67.97
2022-12-23T20:49:33.746Z,68.94
2022-12-23T20:52:01.304Z,69.13
2022-12-23T20:54:33.084Z,68.58
2022-12-23T20:57:01.953Z,68.51
2022-12-23T20:59:29.310Z,67.99
2022-12-23T21:01:59.371Z,68.32
2022-12-23T21:04:26.676Z,67.62
2022-12-23T21:06:53.929Z,67.80
2022-12-23T21:09:20.957Z,67.30
2022-12-23T21:11:48.717Z,67.47
2022-12-23T21:14:16.309Z,67.27
2022-12-23T21:16:43.865Z,66.71
2022-12-23T21:19:17.355Z,66.73
2022-12-23T21:21:45.429Z,66.40
2022-12-23T21:24:13.174Z,67.09
2022-12-23T21:26:40.610Z,67.24
2022-12-23T21:29:09.830Z,67.06
2022-12-23T21:31:39.428Z,66.92
2022-12-23T21:34:07.625Z,66.87
2022-12-23T21:36:37.238Z,66.76
2022-12-23T21:39:05.835Z,66.77
2022-12-23T21:41:38.011Z,67.04
2022-12-23T21:44:05.812Z,67.10
2022-12-23T21:46:33.168Z,67.00
2022-12-23T21:49:00.742Z,67.21
2022-12-23T21:51:36.921Z,67.67
2022-12-23T21:54:06.737Z,67.53
2022-12-23T21:56:33.788Z,68.12
2022-12-23T21:59:03.966Z,68.19
2022-12-23T22:01:31.666Z,68.25
2022-12-23T22:03:59.087Z,68.17
2022-12-23T22:06:28.897Z,68.02
2022-12-23T22:08:57.269Z,68.08
2022-12-23T22:11:25.324Z,68.00
2022-12-23T22:13:53.185Z,67.95
2022-12-23T22:16:22.453Z,67.99
2022-12-23T22:18:50.786Z,67.94
2022-12-23T22:21:19.208Z,68.16
2022-12-23T22:23:47.066Z,68.25
2022-12-23T22:26:22.129Z,68.66
2022-12-23T22:28:51.566Z,68.56
2022-12-23T22:31:24.330Z,68.81
2022-12-23T22:33:51.444Z,69.18
2022-12-23T22:36:18.583Z,68.67
2022-12-23T22:38:55.129Z,68.97
2022-12-23T22:41:23.412Z,68.17
2022-12-23T22:43:50.319Z,68.38
2022-12-23T22:46:18.676Z,67.80
2022-12-23T22:48:46.431Z,67.99
2022-12-23T22:51:25.025Z,68.52
2022-12-23T22:53:52.193Z,68.13
2022-12-23T22:56:21.057Z,68.00
2022-12-23T22:58:49.332Z,69.13
2022-12-23T23:01:21.625Z,69.11
2022-12-23T23:03:51.348Z,69.14
2022-12-23T23:06:19.015Z,68.87
2022-12-23T23:08:46.108Z,68.74
2022-12-23T23:11:13.235Z,68.85
2022-12-23T23:13:40.336Z,68.99
2022-12-23T23:16:07.714Z,68.96
2022-12-23T23:18:34.918Z,68.65
2022-12-23T23:21:01.978Z,69.04
2022-12-23T23:23:29.066Z,68.82
2022-12-23T23:25:56.072Z,68.98
2022-12-23T23:28:23.093Z,69.00
2022-12-23T23:31:03.615Z,69.86
2022-12-23T23:33:37.267Z,70.09
2022-12-23T23:36:04.832Z,69.84
2022-12-23T23:38:31.890Z,70.08
2022-12-23T23:40:59.133Z,70.33
2022-12-23T23:43:26.204Z,70.49
2022-12-23T23:45:53.211Z,70.22
2022-12-23T23:48:21.227Z,71.12
2022-12-23T23:50:48.693Z,70.19
2022-12-23T23:53:16.551Z,70.58
2022-12-23T23:55:43.691Z,69.50
2022-12-23T23:58:12.085Z,70.27
